Time;durP1;ratioP1;P1;durP2;ratioP2;P2;SDS_P1;SDS_P2;PMS_P1;PMS_P2;Temp;Humidity;BMP_temperature;BMP_pressure;BME280_temperature;BME280_humidity;BME280_pressure;Samples;Min_cycle;Max_cycle;Signal;HPM_P1;HPM_P2
2023/12/11 00:00:13;;;;;;;;;0.67;0.67;;;;;;;;5058710;28;45572;-70
2023/12/11 00:02:38;;;;;;;;;2.00;1.00;;;;;;;;5042385;28;45539;-69
2023/12/11 00:05:03;;;;;;;;;3.00;1.00;;;;;;;;5059022;28;45916;-68
2023/12/11 00:07:28;;;;;;;;;2.00;1.00;;;;;;;;5059003;28;45487;-70
2023/12/11 00:09:54;;;;;;;;;2.33;1.33;;;;;;;;5057954;28;45700;-68
2023/12/11 00:12:19;;;;;;;;;1.00;1.00;;;;;;;;5059125;28;45142;-70
2023/12/11 00:14:44;;;;;;;;;1.00;1.00;;;;;;;;5058289;28;46399;-70
2023/12/11 00:17:09;;;;;;;;;2.00;1.00;;;;;;;;5058513;28;45429;-68
2023/12/11 00:19:34;;;;;;;;;7.00;1.00;;;;;;;;5058865;28;45360;-71
2023/12/11 00:21:59;;;;;;;;;4.67;1.00;;;;;;;;5057723;28;45594;-69
2023/12/11 00:24:25;;;;;;;;;0.67;0.67;;;;;;;;5058280;28;46142;-69
2023/12/11 00:26:50;;;;;;;;;2.00;0.33;;;;;;;;5058503;28;45337;-68
2023/12/11 00:29:15;;;;;;;;;0.00;0.00;;;;;;;;5058462;28;45470;-70
2023/12/11 00:31:40;;;;;;;;;2.00;0.33;;;;;;;;5059123;28;45385;-68
2023/12/11 00:34:05;;;;;;;;;8.00;1.00;;;;;;;;5058478;28;46136;-69
2023/12/11 00:36:31;;;;;;;;;2.00;1.00;;;;;;;;5042195;28;46503;-69
2023/12/11 00:38:56;;;;;;;;;2.00;1.00;;;;;;;;5040218;28;45562;-69
2023/12/11 00:41:21;;;;;;;;;3.00;0.33;;;;;;;;5058493;28;45529;-68
2023/12/11 00:43:47;;;;;;;;;2.67;1.33;;;;;;;;5057744;28;45748;-69
2023/12/11 00:46:16;;;;;;;;;2.33;1.67;;;;;;;;5066400;28;45459;-69
2023/12/11 00:48:41;;;;;;;;;1.67;1.00;;;;;;;;5063701;28;45446;-68
2023/12/11 00:51:13;;;;;;;;;6.00;2.00;;;;;;;;5058111;28;45588;-68
2023/12/11 00:53:39;;;;;;;;;2.33;0.67;;;;;;;;5063604;28;46689;-70
2023/12/11 00:56:04;;;;;;;;;8.00;2.00;;;;;;;;5057901;28;45257;-69
2023/12/11 00:58:29;;;;;;;;;5.33;0.33;;;;;;;;5057790;28;45403;-70
2023/12/11 01:00:54;;;;;;;;;2.00;2.00;;;;;;;;5056655;28;45619;-70
2023/12/11 01:03:19;;;;;;;;;1.00;1.00;;;;;;;;5051758;28;46331;-68
2023/12/11 01:05:45;;;;;;;;;1.67;1.00;;;;;;;;5044792;28;45386;-70
2023/12/11 01:08:11;;;;;;;;;1.00;1.00;;;;;;;;5057612;28;45350;-70
2023/12/11 01:10:36;;;;;;;;;1.67;1.33;;;;;;;;5055327;28;45444;-68
2023/12/11 01:13:01;;;;;;;;;6.67;3.00;;;;;;;;5058042;28;46530;-69
2023/12/11 01:15:26;;;;;;;;;5.00;1.33;;;;;;;;5065759;28;45363;-69
2023/12/11 01:17:51;;;;;;;;;3.67;1.00;;;;;;;;5058017;28;45340;-69
2023/12/11 01:20:16;;;;;;;;;4.00;1.00;;;;;;;;5063335;28;45307;-69
2023/12/11 01:22:42;;;;;;;;;3.00;1.00;;;;;;;;5039730;28;46268;-70
2023/12/11 01:25:08;;;;;;;;;2.00;0.67;;;;;;;;5062332;28;45314;-69
2023/12/11 01:27:33;;;;;;;;;0.67;0.33;;;;;;;;5060193;28;45380;-69
2023/12/11 01:29:59;;;;;;;;;6.33;1.00;;;;;;;;5057259;28;45684;-69
2023/12/11 01:32:24;;;;;;;;;5.00;0.33;;;;;;;;5057282;28;45568;-69
2023/12/11 01:34:49;;;;;;;;;3.67;0.67;;;;;;;;5057485;28;45479;-69
2023/12/11 01:37:14;;;;;;;;;4.00;1.00;;;;;;;;5056734;28;45431;-70
2023/12/11 01:39:40;;;;;;;;;1.33;1.33;;;;;;;;5057673;28;45568;-69
2023/12/11 01:42:05;;;;;;;;;1.00;1.00;;;;;;;;5062108;28;46303;-70
2023/12/11 01:44:32;;;;;;;;;5.67;1.00;;;;;;;;5057864;28;45425;-69
2023/12/11 01:46:57;;;;;;;;;5.67;2.33;;;;;;;;5065087;28;45382;-69
2023/12/11 01:49:22;;;;;;;;;3.00;1.00;;;;;;;;5057169;28;45676;-69
2023/12/11 01:51:48;;;;;;;;;3.33;1.67;;;;;;;;5060973;28;45714;-69
2023/12/11 01:54:13;;;;;;;;;4.00;2.00;;;;;;;;5057275;28;45478;-70
2023/12/11 01:56:39;;;;;;;;;2.33;0.00;;;;;;;;5058878;28;45473;-69
2023/12/11 01:59:04;;;;;;;;;1.00;1.00;;;;;;;;5057535;28;45478;-70
2023/12/11 02:01:29;;;;;;;;;4.00;0.33;;;;;;;;5056473;28;46583;-69
2023/12/11 02:03:55;;;;;;;;;9.00;1.33;;;;;;;;5058066;28;45441;-68
2023/12/11 02:06:20;;;;;;;;;4.00;1.00;;;;;;;;5057064;28;45541;-70
2023/12/11 02:08:45;;;;;;;;;3.00;1.00;;;;;;;;5061046;28;45672;-71
2023/12/11 02:11:11;;;;;;;;;4.00;1.00;;;;;;;;5057829;28;45548;-69
2023/12/11 02:13:38;;;;;;;;;3.00;1.00;;;;;;;;5057219;28;45281;-68
2023/12/11 02:16:03;;;;;;;;;4.67;2.33;;;;;;;;5056793;28;45459;-69
2023/12/11 02:18:28;;;;;;;;;4.00;2.00;;;;;;;;5057395;28;45474;-69
2023/12/11 02:20:53;;;;;;;;;3.00;1.00;;;;;;;;5055865;28;46458;-69
2023/12/11 02:23:24;;;;;;;;;2.33;2.33;;;;;;;;5056652;28;45430;-69
2023/12/11 02:25:59;;;;;;;;;4.33;1.67;;;;;;;;5056991;28;45404;-70
2023/12/11 02:28:24;;;;;;;;;3.33;0.33;;;;;;;;5056951;28;45349;-71
2023/12/11 02:30:52;;;;;;;;;3.00;1.00;;;;;;;;5060098;28;46475;-69
2023/12/11 02:33:18;;;;;;;;;4.33;2.00;;;;;;;;5056008;28;45347;-70
2023/12/11 02:35:46;;;;;;;;;11.00;1.00;;;;;;;;5056574;28;45435;-69
2023/12/11 02:38:11;;;;;;;;;2.67;1.00;;;;;;;;5056874;28;45520;-70
2023/12/11 02:40:36;;;;;;;;;4.00;1.67;;;;;;;;5058249;28;46812;-69
2023/12/11 02:43:02;;;;;;;;;2.00;0.67;;;;;;;;5056347;28;45521;-69
2023/12/11 02:45:27;;;;;;;;;3.33;1.67;;;;;;;;5056375;28;45459;-70
2023/12/11 02:47:56;;;;;;;;;5.33;2.00;;;;;;;;5056678;28;45630;-69
2023/12/11 02:50:21;;;;;;;;;6.00;2.00;;;;;;;;5055348;28;45728;-70
2023/12/11 02:52:47;;;;;;;;;3.67;1.00;;;;;;;;5055887;28;45421;-69
2023/12/11 02:55:12;;;;;;;;;5.00;2.00;;;;;;;;5065623;28;45200;-68
2023/12/11 02:57:37;;;;;;;;;6.00;1.00;;;;;;;;5056462;28;45230;-69
2023/12/11 03:00:02;;;;;;;;;2.00;2.00;;;;;;;;5055917;28;46560;-68
2023/12/11 03:02:28;;;;;;;;;4.33;2.00;;;;;;;;5057263;28;45433;-69
2023/12/11 03:04:53;;;;;;;;;7.00;1.33;;;;;;;;5056334;28;45545;-71
2023/12/11 03:07:18;;;;;;;;;4.33;1.33;;;;;;;;5056046;28;45236;-69
2023/12/11 03:09:43;;;;;;;;;2.00;2.00;;;;;;;;5057505;28;45510;-69
2023/12/11 03:12:08;;;;;;;;;6.33;1.00;;;;;;;;5056389;28;45403;-69
2023/12/11 03:14:33;;;;;;;;;3.33;2.67;;;;;;;;5056017;28;45426;-69
2023/12/11 03:16:59;;;;;;;;;7.00;1.67;;;;;;;;5056100;28;45341;-69
2023/12/11 03:19:24;;;;;;;;;4.67;1.33;;;;;;;;5056463;28;46173;-69
2023/12/11 03:21:49;;;;;;;;;6.33;2.00;;;;;;;;5057055;28;45446;-69
2023/12/11 03:24:14;;;;;;;;;3.67;2.00;;;;;;;;5056409;28;45303;-70
2023/12/11 03:26:40;;;;;;;;;9.00;3.00;;;;;;;;5055656;28;45685;-70
2023/12/11 03:29:05;;;;;;;;;4.33;1.33;;;;;;;;5038049;28;47350;-69
2023/12/11 03:31:30;;;;;;;;;5.00;3.00;;;;;;;;5055787;28;45303;-69
2023/12/11 03:33:55;;;;;;;;;4.67;1.67;;;;;;;;5059779;28;45636;-69
2023/12/11 03:36:21;;;;;;;;;1.00;1.00;;;;;;;;5060003;28;45445;-69
2023/12/11 03:38:46;;;;;;;;;4.00;1.00;;;;;;;;5064273;28;47458;-69
2023/12/11 03:41:11;;;;;;;;;3.00;1.00;;;;;;;;5059332;28;45518;-69
2023/12/11 03:43:36;;;;;;;;;8.67;0.33;;;;;;;;5064239;28;45370;-68
2023/12/11 03:46:03;;;;;;;;;7.00;2.00;;;;;;;;5059546;28;45350;-70
2023/12/11 03:48:28;;;;;;;;;10.33;1.00;;;;;;;;5060622;28;46068;-69
2023/12/11 03:50:53;;;;;;;;;6.33;2.33;;;;;;;;5059023;28;45395;-70
2023/12/11 03:53:18;;;;;;;;;7.00;1.00;;;;;;;;5056662;28;45371;-69
2023/12/11 03:55:43;;;;;;;;;4.67;2.00;;;;;;;;5060251;28;45300;-70
2023/12/11 03:58:09;;;;;;;;;3.00;1.33;;;;;;;;5059015;28;45403;-70
2023/12/11 04:00:34;;;;;;;;;5.00;2.00;;;;;;;;5060113;28;45312;-68
2023/12/11 04:02:59;;;;;;;;;7.00;1.00;;;;;;;;5059547;28;45326;-69
2023/12/11 04:05:24;;;;;;;;;6.33;2.00;;;;;;;;5058638;28;45684;-68
2023/12/11 04:07:49;;;;;;;;;4.00;2.00;;;;;;;;5058137;28;45480;-68
2023/12/11 04:10:15;;;;;;;;;1.33;1.00;;;;;;;;5058289;28;45560;-68
2023/12/11 04:12:41;;;;;;;;;8.33;2.00;;;;;;;;5065706;28;45277;-69
2023/12/11 04:15:06;;;;;;;;;4.67;1.00;;;;;;;;5059354;28;45601;-70
2023/12/11 04:17:31;;;;;;;;;9.00;4.00;;;;;;;;5058679;28;46673;-69
2023/12/11 04:19:57;;;;;;;;;7.00;1.00;;;;;;;;5058551;28;45537;-69
2023/12/11 04:22:22;;;;;;;;;3.67;1.00;;;;;;;;5058567;28;45484;-68
2023/12/11 04:24:47;;;;;;;;;4.33;2.33;;;;;;;;5058802;28;45490;-68
2023/12/11 04:27:13;;;;;;;;;8.33;2.00;;;;;;;;5061486;28;45491;-70
2023/12/11 04:29:38;;;;;;;;;7.00;3.33;;;;;;;;5058596;28;45364;-70
2023/12/11 04:32:03;;;;;;;;;4.00;2.00;;;;;;;;5067227;28;45452;-69
2023/12/11 04:34:28;;;;;;;;;3.67;2.00;;;;;;;;5058279;28;45343;-70
2023/12/11 04:36:54;;;;;;;;;8.00;2.00;;;;;;;;5058362;28;48021;-69
2023/12/11 04:39:19;;;;;;;;;6.00;2.00;;;;;;;;5058036;28;45496;-69
2023/12/11 04:41:44;;;;;;;;;2.33;1.67;;;;;;;;5067910;28;45443;-69
2023/12/11 04:44:09;;;;;;;;;5.67;1.67;;;;;;;;5058394;28;45582;-69
2023/12/11 04:46:34;;;;;;;;;9.67;2.33;;;;;;;;5058686;28;45680;-71
2023/12/11 04:48:59;;;;;;;;;4.67;1.00;;;;;;;;5058365;28;45467;-69
2023/12/11 04:51:24;;;;;;;;;5.00;2.00;;;;;;;;5061495;28;45272;-69
2023/12/11 04:53:50;;;;;;;;;7.00;1.00;;;;;;;;5060841;28;45473;-69
2023/12/11 04:56:15;;;;;;;;;7.33;2.00;;;;;;;;5058622;28;46503;-69
2023/12/11 04:58:41;;;;;;;;;5.00;4.00;;;;;;;;5057455;28;45449;-70
2023/12/11 05:01:06;;;;;;;;;3.67;1.67;;;;;;;;5059456;28;45435;-69
2023/12/11 05:03:31;;;;;;;;;5.67;2.00;;;;;;;;5060135;28;45343;-70
2023/12/11 05:05:56;;;;;;;;;1.00;0.33;;;;;;;;5057692;28;45866;-69
2023/12/11 05:08:21;;;;;;;;;6.33;2.33;;;;;;;;5057982;28;45629;-69
2023/12/11 05:10:47;;;;;;;;;7.00;1.67;;;;;;;;5057981;28;45420;-69
2023/12/11 05:13:12;;;;;;;;;4.67;3.00;;;;;;;;5040162;28;45731;-70
2023/12/11 05:15:37;;;;;;;;;8.67;1.67;;;;;;;;5057544;28;46945;-70
2023/12/11 05:18:02;;;;;;;;;6.33;2.67;;;;;;;;5059728;28;45410;-71
2023/12/11 05:20:27;;;;;;;;;6.67;1.00;;;;;;;;5060385;28;45383;-70
2023/12/11 05:22:52;;;;;;;;;3.00;2.00;;;;;;;;5057584;28;45383;-68
2023/12/11 05:25:19;;;;;;;;;10.67;2.33;;;;;;;;5052682;28;45640;-69
2023/12/11 05:27:44;;;;;;;;;2.00;1.67;;;;;;;;5062585;28;45470;-68
2023/12/11 05:30:09;;;;;;;;;5.00;2.00;;;;;;;;5061381;28;45453;-69
2023/12/11 05:32:34;;;;;;;;;4.33;2.00;;;;;;;;5057408;28;45519;-69
2023/12/11 05:34:59;;;;;;;;;2.00;2.00;;;;;;;;5057912;28;45959;-69
2023/12/11 05:37:24;;;;;;;;;4.33;1.00;;;;;;;;5057062;28;45339;-69
2023/12/11 05:39:50;;;;;;;;;6.33;3.00;;;;;;;;5058331;28;45634;-70
2023/12/11 05:42:15;;;;;;;;;9.00;1.67;;;;;;;;5060719;28;45454;-70
2023/12/11 05:44:40;;;;;;;;;5.67;3.00;;;;;;;;5057360;28;45754;-71
2023/12/11 05:47:05;;;;;;;;;6.67;2.00;;;;;;;;5057415;28;45454;-69
2023/12/11 05:49:31;;;;;;;;;9.00;4.00;;;;;;;;5039311;28;45718;-69
2023/12/11 05:51:56;;;;;;;;;6.67;2.33;;;;;;;;5057304;28;45567;-68
2023/12/11 05:54:21;;;;;;;;;6.33;2.33;;;;;;;;5043489;28;47436;-69
2023/12/11 05:56:46;;;;;;;;;4.00;2.00;;;;;;;;5055671;28;45589;-70
2023/12/11 05:59:12;;;;;;;;;6.00;3.00;;;;;;;;5057070;28;45428;-69
2023/12/11 06:01:37;;;;;;;;;7.67;3.00;;;;;;;;5060455;22;46230;-69
2023/12/11 06:04:03;;;;;;;;;7.00;3.00;;;;;;;;5049324;28;46238;-69
2023/12/11 06:06:28;;;;;;;;;4.67;3.00;;;;;;;;5051313;28;45538;-69
2023/12/11 06:08:54;;;;;;;;;4.33;2.67;;;;;;;;5055267;28;45476;-68
2023/12/11 06:11:19;;;;;;;;;5.00;3.00;;;;;;;;5056703;28;46746;-68
2023/12/11 06:13:44;;;;;;;;;6.67;3.00;;;;;;;;5056632;28;46251;-69
2023/12/11 06:16:10;;;;;;;;;6.67;2.00;;;;;;;;5056852;28;45448;-69
2023/12/11 06:18:35;;;;;;;;;9.00;4.67;;;;;;;;5056175;28;45492;-68
2023/12/11 06:21:01;;;;;;;;;2.67;2.00;;;;;;;;5057045;28;45340;-68
2023/12/11 06:23:26;;;;;;;;;7.00;2.33;;;;;;;;5056331;28;45419;-70
2023/12/11 06:25:51;;;;;;;;;3.33;1.67;;;;;;;;5055877;28;45458;-69
2023/12/11 06:28:16;;;;;;;;;7.67;3.00;;;;;;;;5056418;28;45410;-69
2023/12/11 06:30:41;;;;;;;;;4.00;4.00;;;;;;;;5056018;28;45498;-69
2023/12/11 06:33:07;;;;;;;;;7.00;3.00;;;;;;;;5057108;28;46628;-70
2023/12/11 06:35:32;;;;;;;;;6.00;2.00;;;;;;;;5055636;28;45586;-70
2023/12/11 06:37:57;;;;;;;;;5.33;2.00;;;;;;;;5055209;28;45602;-69
2023/12/11 06:40:22;;;;;;;;;7.00;2.00;;;;;;;;5056165;28;45289;-70
2023/12/11 06:42:47;;;;;;;;;3.00;1.00;;;;;;;;5056108;28;45909;-69
2023/12/11 06:45:12;;;;;;;;;5.00;2.00;;;;;;;;5055783;28;45642;-70
2023/12/11 06:47:38;;;;;;;;;2.33;2.00;;;;;;;;5056206;28;45428;-66
2023/12/11 06:50:03;;;;;;;;;5.00;2.00;;;;;;;;5055049;28;45340;-69
2023/12/11 06:52:28;;;;;;;;;4.33;1.00;;;;;;;;5056108;28;45717;-68
2023/12/11 06:54:54;;;;;;;;;5.67;3.00;;;;;;;;5056717;28;45343;-69
2023/12/11 06:57:19;;;;;;;;;4.67;1.33;;;;;;;;5056093;28;45461;-71
2023/12/11 06:59:45;;;;;;;;;5.00;2.00;;;;;;;;5055979;28;45380;-70
2023/12/11 07:02:10;;;;;;;;;3.67;3.33;;;;;;;;5056110;28;45507;-66
2023/12/11 07:04:35;;;;;;;;;5.00;2.00;;;;;;;;5046377;28;46377;-67
2023/12/11 07:07:00;;;;;;;;;6.67;2.00;;;;;;;;5046563;28;45414;-70
2023/12/11 07:09:26;;;;;;;;;6.67;2.00;;;;;;;;5048981;28;45493;-70
2023/12/11 07:11:51;;;;;;;;;5.00;3.00;;;;;;;;5042959;28;46486;-67
2023/12/11 07:14:18;;;;;;;;;8.67;2.00;;;;;;;;5050203;28;45396;-68
2023/12/11 07:16:43;;;;;;;;;11.00;2.00;;;;;;;;5055770;28;45464;-68
2023/12/11 07:19:08;;;;;;;;;5.33;2.33;;;;;;;;5053744;28;45514;-68
2023/12/11 07:21:33;;;;;;;;;12.67;2.00;;;;;;;;5047796;28;46402;-69
2023/12/11 07:23:59;;;;;;;;;10.33;2.00;;;;;;;;5053143;28;45483;-69
2023/12/11 07:26:24;;;;;;;;;6.33;2.00;;;;;;;;5055797;28;45367;-69
2023/12/11 07:28:49;;;;;;;;;5.00;1.00;;;;;;;;5054598;28;45579;-70
2023/12/11 07:31:14;;;;;;;;;3.00;2.00;;;;;;;;5053774;28;45930;-69
2023/12/11 07:33:39;;;;;;;;;7.67;1.00;;;;;;;;5051877;28;45323;-69
2023/12/11 07:36:05;;;;;;;;;13.00;2.00;;;;;;;;5053905;28;45292;-69
2023/12/11 07:38:31;;;;;;;;;13.00;3.33;;;;;;;;5053606;28;46943;-69
2023/12/11 07:40:56;;;;;;;;;5.00;2.67;;;;;;;;5051929;28;45739;-68
2023/12/11 07:43:22;;;;;;;;;7.33;2.00;;;;;;;;5048056;28;46460;-68
2023/12/11 07:45:47;;;;;;;;;5.00;2.00;;;;;;;;5049858;28;45585;-67
2023/12/11 07:48:12;;;;;;;;;4.67;1.67;;;;;;;;5045408;28;45541;-68
2023/12/11 07:50:39;;;;;;;;;5.67;3.00;;;;;;;;5040710;28;46726;-68
2023/12/11 07:53:04;;;;;;;;;2.67;1.00;;;;;;;;5041965;28;45551;-68
2023/12/11 07:55:29;;;;;;;;;5.67;1.00;;;;;;;;5047870;28;46570;-68
2023/12/11 07:57:54;;;;;;;;;5.67;3.00;;;;;;;;5048469;28;45587;-68
2023/12/11 08:00:20;;;;;;;;;6.00;3.00;;;;;;;;5048140;28;45866;-69
2023/12/11 08:02:45;;;;;;;;;3.67;3.00;;;;;;;;5051224;28;45626;-68
2023/12/11 08:05:11;;;;;;;;;5.00;2.00;;;;;;;;5052713;28;45557;-68
2023/12/11 08:07:37;;;;;;;;;5.67;3.00;;;;;;;;5049542;28;45763;-70
2023/12/11 08:10:02;;;;;;;;;7.00;3.00;;;;;;;;5050898;28;45593;-68
2023/12/11 08:12:28;;;;;;;;;4.00;1.00;;;;;;;;5052577;28;45441;-70
2023/12/11 08:14:53;;;;;;;;;5.00;1.67;;;;;;;;5050505;28;45465;-69
2023/12/11 08:17:18;;;;;;;;;11.33;2.00;;;;;;;;5051935;28;45526;-70
2023/12/11 08:19:44;;;;;;;;;9.33;3.00;;;;;;;;5051234;28;46510;-70
2023/12/11 08:22:09;;;;;;;;;2.67;2.67;;;;;;;;5056558;28;45494;-70
2023/12/11 08:24:35;;;;;;;;;6.33;2.67;;;;;;;;5057067;28;45424;-70
2023/12/11 08:27:00;;;;;;;;;6.33;2.00;;;;;;;;5055503;28;45620;-70
2023/12/11 08:29:26;;;;;;;;;5.00;3.67;;;;;;;;5048073;28;45656;-70
2023/12/11 08:31:51;;;;;;;;;10.67;2.67;;;;;;;;5051392;28;45450;-70
2023/12/11 08:34:18;;;;;;;;;6.67;3.33;;;;;;;;5053730;28;45474;-70
2023/12/11 08:36:43;;;;;;;;;2.67;2.67;;;;;;;;5044653;28;45821;-70
2023/12/11 08:39:09;;;;;;;;;11.33;2.67;;;;;;;;5049582;28;46017;-71
2023/12/11 08:41:35;;;;;;;;;5.00;2.33;;;;;;;;5047857;28;45809;-70
2023/12/11 08:44:01;;;;;;;;;4.33;2.67;;;;;;;;5052606;28;45351;-71
2023/12/11 08:46:26;;;;;;;;;8.33;2.00;;;;;;;;5050566;28;46606;-70
2023/12/11 08:48:51;;;;;;;;;7.33;3.00;;;;;;;;5051987;28;45790;-70
2023/12/11 08:51:17;;;;;;;;;6.00;2.00;;;;;;;;5053891;28;46420;-70
2023/12/11 08:53:43;;;;;;;;;3.00;1.67;;;;;;;;5054216;28;45407;-69
2023/12/11 08:56:08;;;;;;;;;7.00;3.00;;;;;;;;5054017;28;45490;-70
2023/12/11 08:58:33;;;;;;;;;6.33;1.67;;;;;;;;5052983;28;45533;-70
2023/12/11 09:00:58;;;;;;;;;6.33;2.00;;;;;;;;5053158;28;45594;-71
2023/12/11 09:03:24;;;;;;;;;5.00;4.00;;;;;;;;5036959;28;45711;-70
2023/12/11 09:05:49;;;;;;;;;5.33;3.00;;;;;;;;5031859;28;45561;-70
2023/12/11 09:08:14;;;;;;;;;4.67;3.00;;;;;;;;5029182;28;46324;-70
2023/12/11 09:10:40;;;;;;;;;5.00;2.00;;;;;;;;5034954;28;45544;-70
2023/12/11 09:13:06;;;;;;;;;9.00;4.00;;;;;;;;5028121;28;45673;-71
2023/12/11 09:15:31;;;;;;;;;4.00;2.00;;;;;;;;5034444;28;46812;-70
2023/12/11 09:17:56;;;;;;;;;5.67;3.00;;;;;;;;5017152;28;47729;-71
2023/12/11 09:20:21;;;;;;;;;7.00;2.00;;;;;;;;5032305;28;45653;-70
2023/12/11 09:22:47;;;;;;;;;8.33;3.00;;;;;;;;5035518;28;45486;-69
2023/12/11 09:25:12;;;;;;;;;6.33;2.67;;;;;;;;5032531;28;45514;-70
2023/12/11 09:27:38;;;;;;;;;10.67;3.33;;;;;;;;5039125;28;46839;-70
2023/12/11 09:30:05;;;;;;;;;4.00;1.00;;;;;;;;5032666;28;45551;-70
2023/12/11 09:32:30;;;;;;;;;9.67;3.00;;;;;;;;5032106;28;45580;-70
2023/12/11 09:34:55;;;;;;;;;11.00;3.00;;;;;;;;5039182;28;45662;-70
2023/12/11 09:37:21;;;;;;;;;4.00;2.00;;;;;;;;5015459;28;47776;-70
2023/12/11 09:39:47;;;;;;;;;8.00;3.00;;;;;;;;5035191;28;45503;-70
2023/12/11 09:42:13;;;;;;;;;8.00;2.33;;;;;;;;5034003;28;45535;-70
2023/12/11 09:44:40;;;;;;;;;6.00;3.00;;;;;;;;5032528;28;45391;-68
2023/12/11 09:47:08;;;;;;;;;8.67;3.00;;;;;;;;5034908;28;45756;-68
2023/12/11 09:49:34;;;;;;;;;5.67;3.33;;;;;;;;5036628;28;45399;-70
2023/12/11 09:52:00;;;;;;;;;6.67;3.33;;;;;;;;5035156;28;45705;-68
2023/12/11 09:54:25;;;;;;;;;5.33;3.00;;;;;;;;5015236;28;45644;-69
2023/12/11 09:56:51;;;;;;;;;10.67;2.33;;;;;;;;5034753;28;46595;-68
2023/12/11 09:59:16;;;;;;;;;4.67;3.33;;;;;;;;5014656;28;46028;-69
2023/12/11 10:01:41;;;;;;;;;4.33;2.00;;;;;;;;5035717;28;45487;-69
2023/12/11 10:04:06;;;;;;;;;9.00;4.00;;;;;;;;5054495;28;45491;-68
2023/12/11 10:06:32;;;;;;;;;4.67;2.00;;;;;;;;5054484;28;45821;-68
2023/12/11 10:08:57;;;;;;;;;4.00;2.00;;;;;;;;5055134;28;45507;-68
2023/12/11 10:11:22;;;;;;;;;6.67;2.00;;;;;;;;5054197;28;45449;-68
2023/12/11 10:13:48;;;;;;;;;6.00;3.00;;;;;;;;5053982;28;45368;-70
2023/12/11 10:16:30;;;;;;;;;5.00;2.00;;;;;;;;5053643;28;46066;-68
2023/12/11 10:18:56;;;;;;;;;4.33;2.67;;;;;;;;5054391;28;45436;-68
2023/12/11 10:21:24;;;;;;;;;7.33;2.33;;;;;;;;5054304;28;45402;-68
2023/12/11 10:24:06;;;;;;;;;7.67;3.00;;;;;;;;5054543;28;45904;-68
2023/12/11 10:26:32;;;;;;;;;2.33;2.33;;;;;;;;5054509;28;45753;-69
2023/12/11 10:29:15;;;;;;;;;6.00;2.00;;;;;;;;5054428;28;45475;-70
2023/12/11 10:31:40;;;;;;;;;5.00;3.00;;;;;;;;5053910;28;45450;-70
2023/12/11 10:34:05;;;;;;;;;6.33;3.00;;;;;;;;5051650;28;45344;-72
2023/12/11 10:36:30;;;;;;;;;4.67;3.00;;;;;;;;5053964;28;46550;-71
2023/12/11 10:39:06;;;;;;;;;1.67;1.67;;;;;;;;5053642;28;45671;-72
2023/12/11 10:41:31;;;;;;;;;14.33;2.67;;;;;;;;5053821;28;45467;-71
2023/12/11 10:43:56;;;;;;;;;9.67;3.00;;;;;;;;5051194;28;45717;-72
2023/12/11 10:46:21;;;;;;;;;3.67;3.00;;;;;;;;5046001;28;46168;-74
2023/12/11 10:48:47;;;;;;;;;10.33;3.00;;;;;;;;5051564;28;45404;-74
2023/12/11 10:51:12;;;;;;;;;4.00;2.67;;;;;;;;5051504;28;45545;-73
2023/12/11 10:53:38;;;;;;;;;10.33;3.00;;;;;;;;5049922;28;45551;-74
2023/12/11 10:56:05;;;;;;;;;8.67;2.00;;;;;;;;5053511;28;46654;-75
2023/12/11 10:58:30;;;;;;;;;13.33;3.67;;;;;;;;5053948;28;45667;-74
2023/12/11 11:00:57;;;;;;;;;13.67;3.00;;;;;;;;5053151;28;45778;-75
2023/12/11 11:03:23;;;;;;;;;3.67;2.00;;;;;;;;5050935;28;45636;-75
2023/12/11 11:05:49;;;;;;;;;5.67;2.00;;;;;;;;5053641;28;46825;-75
2023/12/11 11:08:24;;;;;;;;;6.00;1.67;;;;;;;;5050743;28;45551;-74
2023/12/11 11:11:09;;;;;;;;;4.67;3.33;;;;;;;;5051995;28;46210;-75
2023/12/11 11:13:46;;;;;;;;;10.00;2.67;;;;;;;;5051686;28;45478;-75
2023/12/11 11:16:12;;;;;;;;;9.67;4.00;;;;;;;;5034843;28;48396;-74
2023/12/11 11:18:55;;;;;;;;;4.00;1.67;;;;;;;;5053444;28;45658;-68
2023/12/11 11:21:21;;;;;;;;;6.33;4.00;;;;;;;;5050542;28;45436;-76
2023/12/11 11:23:47;;;;;;;;;3.00;2.00;;;;;;;;5053538;28;45450;-74
2023/12/11 11:26:31;;;;;;;;;14.67;4.00;;;;;;;;5050635;28;46384;-74
2023/12/11 11:28:56;;;;;;;;;8.00;3.00;;;;;;;;5050495;28;45723;-72
2023/12/11 11:31:42;;;;;;;;;4.67;2.00;;;;;;;;5052497;28;45353;-72
2023/12/11 11:34:07;;;;;;;;;8.00;2.00;;;;;;;;5050531;28;45547;-73
2023/12/11 11:36:52;;;;;;;;;8.33;3.00;;;;;;;;5051871;28;45918;-74
2023/12/11 11:39:17;;;;;;;;;3.33;2.00;;;;;;;;5048427;28;45416;-75
2023/12/11 11:41:43;;;;;;;;;8.00;3.00;;;;;;;;5052120;28;45439;-71
2023/12/11 11:44:09;;;;;;;;;11.67;3.67;;;;;;;;5053195;28;45459;-72
2023/12/11 11:46:54;;;;;;;;;5.00;2.00;;;;;;;;5049732;28;46659;-70
2023/12/11 11:49:23;;;;;;;;;3.67;3.00;;;;;;;;5052103;28;45478;-69
2023/12/11 11:51:48;;;;;;;;;11.67;4.00;;;;;;;;5052862;28;45478;-69
2023/12/11 11:54:14;;;;;;;;;2.67;2.33;;;;;;;;5056103;28;45505;-67
2023/12/11 11:56:46;;;;;;;;;7.67;2.33;;;;;;;;5057268;28;45556;-69
2023/12/11 11:59:11;;;;;;;;;7.33;3.00;;;;;;;;5058046;28;45458;-71
2023/12/11 12:01:47;;;;;;;;;5.33;1.00;;;;;;;;5057087;28;45478;-68
2023/12/11 12:04:23;;;;;;;;;7.00;1.00;;;;;;;;5054674;28;45740;-69
2023/12/11 12:06:48;;;;;;;;;7.00;3.33;;;;;;;;5056563;28;46139;-74
2023/12/11 12:09:17;;;;;;;;;10.67;3.00;;;;;;;;5057885;28;45375;-74
2023/12/11 12:11:42;;;;;;;;;7.33;2.00;;;;;;;;5056172;28;45390;-72
2023/12/11 12:14:11;;;;;;;;;13.67;2.67;;;;;;;;5056471;28;45372;-73
2023/12/11 12:16:37;;;;;;;;;6.33;2.33;;;;;;;;5058331;28;46753;-71
2023/12/11 12:19:02;;;;;;;;;9.33;3.00;;;;;;;;5057444;28;45504;-70
2023/12/11 12:21:27;;;;;;;;;12.00;3.33;;;;;;;;5056861;28;47084;-70
2023/12/11 12:24:03;;;;;;;;;8.00;4.00;;;;;;;;5058485;28;46675;-70
2023/12/11 12:26:29;;;;;;;;;4.00;2.00;;;;;;;;5049863;28;46938;-72
2023/12/11 12:28:54;;;;;;;;;4.67;2.00;;;;;;;;5052624;28;46134;-72
2023/12/11 12:31:19;;;;;;;;;5.00;2.33;;;;;;;;5055171;28;45553;-72
2023/12/11 12:33:45;;;;;;;;;7.67;2.00;;;;;;;;5050936;28;45379;-70
2023/12/11 12:36:10;;;;;;;;;7.00;0.00;;;;;;;;5052227;28;45383;-70
2023/12/11 12:38:35;;;;;;;;;4.00;2.33;;;;;;;;5054354;28;45530;-70
2023/12/11 12:41:00;;;;;;;;;4.33;3.33;;;;;;;;5038973;28;45396;-71
2023/12/11 12:43:26;;;;;;;;;10.00;3.00;;;;;;;;5052361;28;45606;-72
2023/12/11 12:45:58;;;;;;;;;3.00;3.00;;;;;;;;5057026;28;45724;-71
2023/12/11 12:48:27;;;;;;;;;4.33;2.00;;;;;;;;5057688;28;45500;-71
2023/12/11 12:51:03;;;;;;;;;6.33;2.00;;;;;;;;5054864;28;45376;-71
2023/12/11 12:53:29;;;;;;;;;8.67;2.00;;;;;;;;5054609;28;45411;-72
2023/12/11 12:55:55;;;;;;;;;6.33;3.00;;;;;;;;5055247;28;45823;-70
2023/12/11 12:58:26;;;;;;;;;6.67;2.00;;;;;;;;5055201;28;45566;-70
2023/12/11 13:00:57;;;;;;;;;11.33;3.00;;;;;;;;5054572;28;45527;-70
2023/12/11 13:03:23;;;;;;;;;6.67;2.00;;;;;;;;5054661;28;45596;-70
2023/12/11 13:05:50;;;;;;;;;1.00;1.00;;;;;;;;5034338;28;47570;-68
2023/12/11 13:08:15;;;;;;;;;4.33;2.00;;;;;;;;5052563;28;45661;-67
2023/12/11 13:11:07;;;;;;;;;4.00;3.00;;;;;;;;5047998;28;46345;-69
2023/12/11 13:13:32;;;;;;;;;4.67;2.00;;;;;;;;5045762;28;45542;-70
2023/12/11 13:15:57;;;;;;;;;3.00;1.33;;;;;;;;5053852;28;45990;-69
2023/12/11 13:18:22;;;;;;;;;2.00;2.00;;;;;;;;5052615;28;45586;-69
2023/12/11 13:20:49;;;;;;;;;4.67;3.00;;;;;;;;5053471;28;45520;-68
2023/12/11 13:23:14;;;;;;;;;4.67;3.00;;;;;;;;5052223;28;45495;-69
2023/12/11 13:25:39;;;;;;;;;7.00;1.67;;;;;;;;5054214;28;46746;-68
2023/12/11 13:28:05;;;;;;;;;6.67;3.00;;;;;;;;5054754;28;45372;-68
2023/12/11 13:30:30;;;;;;;;;12.00;4.00;;;;;;;;5053590;28;45434;-69
2023/12/11 13:32:56;;;;;;;;;6.67;1.00;;;;;;;;5053079;28;45504;-68
2023/12/11 13:35:21;;;;;;;;;7.67;1.00;;;;;;;;5054580;28;45674;-70
2023/12/11 13:37:47;;;;;;;;;6.00;3.67;;;;;;;;5033989;28;45475;-68
2023/12/11 13:40:12;;;;;;;;;7.00;2.00;;;;;;;;5054959;28;45503;-69
2023/12/11 13:42:38;;;;;;;;;4.00;2.67;;;;;;;;5054792;28;45526;-69
2023/12/11 13:45:03;;;;;;;;;5.00;2.00;;;;;;;;5049171;28;46708;-68
2023/12/11 13:47:29;;;;;;;;;6.33;2.67;;;;;;;;5054638;28;45396;-70
2023/12/11 13:49:54;;;;;;;;;3.00;1.00;;;;;;;;5053615;28;45492;-67
2023/12/11 13:52:19;;;;;;;;;12.00;1.00;;;;;;;;5050831;28;45601;-69
2023/12/11 13:54:44;;;;;;;;;4.00;2.00;;;;;;;;5050238;28;46732;-69
2023/12/11 13:57:09;;;;;;;;;4.00;2.00;;;;;;;;5049022;28;45495;-69
2023/12/11 13:59:34;;;;;;;;;7.67;3.00;;;;;;;;5052280;28;45529;-70
2023/12/11 14:02:00;;;;;;;;;6.67;3.00;;;;;;;;5049525;28;45594;-68
2023/12/11 14:04:25;;;;;;;;;4.67;3.00;;;;;;;;5053037;28;45706;-70
2023/12/11 14:06:51;;;;;;;;;6.00;2.33;;;;;;;;5050027;28;46187;-68
2023/12/11 14:09:16;;;;;;;;;9.67;2.33;;;;;;;;5050480;28;45454;-73
2023/12/11 14:11:41;;;;;;;;;6.33;2.67;;;;;;;;5052692;28;45439;-82
2023/12/11 14:14:06;;;;;;;;;5.33;2.00;;;;;;;;5035462;28;47738;-77
2023/12/11 14:16:32;;;;;;;;;8.00;2.33;;;;;;;;5052754;28;45439;-74
2023/12/11 14:18:57;;;;;;;;;8.33;2.00;;;;;;;;5049693;28;45399;-72
2023/12/11 14:21:22;;;;;;;;;4.33;3.00;;;;;;;;5054497;28;45482;-71
2023/12/11 14:23:47;;;;;;;;;5.00;2.00;;;;;;;;5048666;28;46571;-72
2023/12/11 14:26:13;;;;;;;;;8.00;3.00;;;;;;;;5050420;28;45526;-71
2023/12/11 14:28:38;;;;;;;;;6.00;3.00;;;;;;;;5053438;28;45544;-71
2023/12/11 14:31:08;;;;;;;;;4.00;2.00;;;;;;;;5053567;28;46734;-71
2023/12/11 14:33:33;;;;;;;;;7.00;2.00;;;;;;;;5049365;28;45495;-71
2023/12/11 14:35:58;;;;;;;;;6.33;3.00;;;;;;;;5053428;28;45578;-71